Time;durP1;ratioP1;P1;durP2;ratioP2;P2;SDS_P1;SDS_P2;PMS_P1;PMS_P2;Temp;Humidity;BMP_temperature;BMP_pressure;BME280_temperature;BME280_humidity;BME280_pressure;Samples;Min_cycle;Max_cycle;Signal;HPM_P1;HPM_P2
2021/06/27 00:00:22;;;;;;;0.70;0.50;;;;;;;23.77;68.61;99298.28;4769370;30;20111;-75
2021/06/27 00:03:09;;;;;;;1.08;0.60;;;;;;;23.81;68.64;99305.00;4766413;30;20063;-74
2021/06/27 00:05:37;;;;;;;1.48;0.63;;;;;;;23.84;68.44;99298.16;4778645;29;20485;-75
2021/06/27 00:08:04;;;;;;;0.60;0.60;;;;;;;23.82;69.22;99295.63;4766162;30;20562;-77
2021/06/27 00:10:36;;;;;;;0.75;0.52;;;;;;;23.79;69.43;99292.50;4766375;30;20055;-74
2021/06/27 00:13:03;;;;;;;1.15;0.50;;;;;;;23.79;69.52;99296.09;4766531;30;20074;-76
2021/06/27 00:15:33;;;;;;;1.40;0.50;;;;;;;23.72;70.05;99294.59;4765675;30;20062;-76
2021/06/27 00:18:01;;;;;;;0.50;0.50;;;;;;;23.70;69.50;99300.34;4745071;30;20075;-75
2021/06/27 00:20:30;;;;;;;1.55;0.70;;;;;;;23.74;69.35;99293.25;4766064;30;20046;-76
2021/06/27 00:22:56;;;;;;;1.65;0.55;;;;;;;23.74;69.55;99298.78;4765474;30;20166;-74
2021/06/27 00:25:25;;;;;;;1.20;0.63;;;;;;;23.69;69.94;99295.91;4770456;30;20169;-75
2021/06/27 00:28:04;;;;;;;0.75;0.60;;;;;;;23.65;70.39;99289.16;4749805;30;20143;-76
2021/06/27 00:30:30;;;;;;;1.33;0.50;;;;;;;23.63;70.30;99285.00;4759734;30;20086;-77
2021/06/27 00:32:57;;;;;;;1.05;0.60;;;;;;;23.64;70.63;99293.00;4757788;30;20048;-76
2021/06/27 00:35:24;;;;;;;0.82;0.60;;;;;;;23.60;70.64;99291.84;4758392;30;20044;-74
2021/06/27 00:37:50;;;;;;;1.27;0.50;;;;;;;23.46;71.15;99295.97;4765135;30;20044;-76
2021/06/27 00:40:20;;;;;;;0.68;0.50;;;;;;;23.30;71.65;99298.41;4762999;30;20534;-75
2021/06/27 00:42:46;;;;;;;0.82;0.40;;;;;;;23.18;71.70;99305.00;4764476;30;20059;-76
2021/06/27 00:45:14;;;;;;;0.82;0.50;;;;;;;23.06;71.91;99303.09;4764938;30;20100;-76
2021/06/27 00:47:42;;;;;;;0.93;0.60;;;;;;;23.02;72.01;99298.31;4762614;30;20099;-76
2021/06/27 00:50:21;;;;;;;0.65;0.50;;;;;;;23.02;72.17;99301.06;4764601;30;20163;-75
2021/06/27 00:52:47;;;;;;;0.50;0.47;;;;;;;22.96;72.17;99296.50;4765945;30;20458;-74
2021/06/27 00:55:14;;;;;;;0.80;0.47;;;;;;;22.90;72.80;99302.97;4766244;30;20134;-76
2021/06/27 00:57:42;;;;;;;0.82;0.60;;;;;;;22.87;72.47;99296.00;4766104;30;20130;-74
2021/06/27 01:00:11;;;;;;;0.95;0.47;;;;;;;22.77;73.15;99310.38;4762093;30;20044;-76
2021/06/27 01:02:38;;;;;;;0.55;0.40;;;;;;;22.72;73.52;99307.50;4765841;29;20437;-74
2021/06/27 01:05:10;;;;;;;0.73;0.43;;;;;;;22.67;73.84;99312.06;4758678;30;20519;-76
2021/06/27 01:07:36;;;;;;;0.57;0.57;;;;;;;22.65;73.91;99311.47;4764784;30;20081;-74
2021/06/27 01:10:03;;;;;;;0.60;0.50;;;;;;;22.65;73.92;99306.78;4764792;30;20043;-75
2021/06/27 01:12:29;;;;;;;0.98;0.68;;;;;;;22.67;73.80;99312.91;4763633;30;20060;-74
2021/06/27 01:14:55;;;;;;;0.75;0.40;;;;;;;22.68;73.96;99313.75;4764770;30;20269;-76
2021/06/27 01:17:22;;;;;;;0.90;0.50;;;;;;;22.75;73.59;99312.56;4765133;30;20468;-75
2021/06/27 01:19:49;;;;;;;0.63;0.50;;;;;;;22.83;73.50;99309.44;4765665;30;20117;-74
2021/06/27 01:22:15;;;;;;;0.50;0.50;;;;;;;22.90;73.21;99308.47;4764474;30;20467;-75
2021/06/27 01:24:41;;;;;;;0.60;0.40;;;;;;;22.96;73.08;99302.84;4764647;30;20048;-76
2021/06/27 01:27:07;;;;;;;1.27;0.52;;;;;;;22.96;72.98;99307.53;4765835;30;20142;-75
2021/06/27 01:29:33;;;;;;;0.93;0.68;;;;;;;23.07;72.77;99301.16;4765837;30;20404;-75
2021/06/27 01:31:58;;;;;;;1.67;0.50;;;;;;;23.12;72.64;99300.47;4762849;30;20432;-74
2021/06/27 01:34:25;;;;;;;0.95;0.50;;;;;;;23.19;72.81;99303.94;4763609;30;20130;-75
2021/06/27 01:36:50;;;;;;;0.57;0.35;;;;;;;23.22;72.29;99307.06;4765585;30;20122;-74
2021/06/27 01:39:16;;;;;;;0.70;0.57;;;;;;;23.22;71.84;99301.53;4765400;30;20142;-75
2021/06/27 01:41:52;;;;;;;1.25;0.63;;;;;;;23.27;71.83;99295.28;4735425;30;20064;-74
2021/06/27 01:44:18;;;;;;;0.70;0.40;;;;;;;23.32;71.76;99298.97;4749958;30;20075;-75
2021/06/27 01:46:44;;;;;;;0.70;0.40;;;;;;;23.33;71.74;99299.84;4765146;30;20040;-75
2021/06/27 01:49:11;;;;;;;0.50;0.50;;;;;;;23.33;71.77;99295.16;4757188;30;20087;-75
2021/06/27 01:51:38;;;;;;;0.60;0.50;;;;;;;23.34;71.68;99294.06;4759062;30;20051;-75
2021/06/27 01:54:05;;;;;;;0.95;0.50;;;;;;;23.34;71.51;99294.06;4763239;30;20415;-75
2021/06/27 01:56:31;;;;;;;0.30;0.30;;;;;;;23.38;71.83;99299.09;4762629;30;20043;-74
2021/06/27 01:58:57;;;;;;;0.40;0.40;;;;;;;23.44;71.67;99298.09;4764401;30;20063;-74
2021/06/27 02:01:30;;;;;;;0.90;0.40;;;;;;;23.46;71.56;99284.91;4762699;30;20226;-73
2021/06/27 02:03:55;;;;;;;0.40;0.40;;;;;;;23.49;71.35;99287.19;4763974;30;20052;-75
2021/06/27 02:06:24;;;;;;;1.50;0.50;;;;;;;23.51;71.21;99288.63;4747926;30;20042;-75
2021/06/27 02:08:51;;;;;;;0.90;0.60;;;;;;;23.56;71.21;99285.97;4763574;30;20477;-74
2021/06/27 02:11:19;;;;;;;0.40;0.40;;;;;;;23.60;71.46;99283.56;4747340;30;20044;-75
2021/06/27 02:13:45;;;;;;;0.40;0.40;;;;;;;23.63;71.36;99282.22;4743451;30;20494;-75
2021/06/27 02:16:11;;;;;;;0.55;0.47;;;;;;;23.65;71.17;99272.59;4762485;30;20112;-81
2021/06/27 02:18:45;;;;;;;0.45;0.40;;;;;;;23.70;71.37;99281.03;4763801;30;20142;-82
2021/06/27 02:21:17;;;;;;;0.45;0.45;;;;;;;23.72;71.53;99283.53;4782242;29;20097;-80
2021/06/27 02:23:44;;;;;;;0.30;0.30;;;;;;;23.78;71.25;99288.91;4770763;30;20061;-80
2021/06/27 02:26:10;;;;;;;0.52;0.52;;;;;;;23.83;71.25;99286.25;4784267;30;20054;-83
2021/06/27 02:28:36;;;;;;;0.50;0.50;;;;;;;23.87;70.77;99286.59;4766351;30;20055;-80
2021/06/27 02:31:03;;;;;;;0.55;0.47;;;;;;;24.01;70.29;99295.41;4766257;30;20071;-83
2021/06/27 02:33:29;;;;;;;0.45;0.45;;;;;;;24.14;69.68;99291.53;4732742;30;20078;-81
2021/06/27 02:35:56;;;;;;;0.50;0.45;;;;;;;24.24;69.63;99306.34;4764032;30;20088;-83
2021/06/27 02:38:22;;;;;;;0.73;0.50;;;;;;;24.37;69.30;99299.66;4751169;30;20493;-81
2021/06/27 02:40:48;;;;;;;1.15;0.57;;;;;;;24.52;68.94;99296.34;4764723;30;20164;-82
2021/06/27 02:43:17;;;;;;;0.40;0.40;;;;;;;24.66;68.10;99300.44;4766347;30;20511;-82
2021/06/27 02:45:44;;;;;;;0.40;0.40;;;;;;;24.83;67.80;99305.13;4763859;30;20046;-80
2021/06/27 02:48:10;;;;;;;0.50;0.50;;;;;;;24.96;67.93;99302.00;4750439;30;20063;-83
2021/06/27 02:50:38;;;;;;;0.50;0.40;;;;;;;25.06;66.82;99299.41;4767003;30;20043;-83
2021/06/27 02:53:05;;;;;;;0.63;0.40;;;;;;;25.13;67.24;99300.09;4762751;30;20054;-82
2021/06/27 02:55:31;;;;;;;0.63;0.35;;;;;;;25.21;66.82;99307.94;4741532;30;20089;-81
2021/06/27 02:57:57;;;;;;;3.40;0.68;;;;;;;25.35;66.81;99302.03;4761322;30;20052;-82
2021/06/27 03:00:23;;;;;;;0.43;0.43;;;;;;;25.48;65.89;99302.47;4765159;30;20127;-79
2021/06/27 03:02:49;;;;;;;0.60;0.40;;;;;;;25.61;65.58;99312.34;4744225;30;20147;-79
2021/06/27 03:05:16;;;;;;;0.50;0.40;;;;;;;25.70;65.09;99310.78;4762948;30;20540;-82
2021/06/27 03:07:43;;;;;;;0.88;0.40;;;;;;;25.81;64.94;99306.22;4761354;30;20142;-81
2021/06/27 03:10:12;;;;;;;0.93;0.55;;;;;;;25.87;64.90;99299.66;4760779;30;20552;-80
2021/06/27 03:12:40;;;;;;;0.60;0.50;;;;;;;26.02;65.10;99310.06;4761603;30;20532;-79
2021/06/27 03:15:07;;;;;;;0.80;0.50;;;;;;;26.15;64.29;99306.88;4764945;30;20035;-82
2021/06/27 03:17:33;;;;;;;0.77;0.50;;;;;;;26.39;63.20;99312.09;4763812;30;20048;-82
2021/06/27 03:20:00;;;;;;;0.47;0.38;;;;;;;26.54;63.33;99298.38;4764649;30;20116;-81
2021/06/27 03:22:26;;;;;;;1.25;0.52;;;;;;;26.64;63.18;99304.03;4748311;30;20161;-81
2021/06/27 03:24:52;;;;;;;0.63;0.50;;;;;;;26.77;62.51;99307.47;4765016;30;20465;-81
2021/06/27 03:27:20;;;;;;;0.40;0.40;;;;;;;26.85;62.14;99301.41;4764760;30;20570;-81
2021/06/27 03:29:47;;;;;;;0.40;0.40;;;;;;;27.02;61.86;99306.78;4760693;30;20051;-80
2021/06/27 03:32:13;;;;;;;0.70;0.40;;;;;;;27.22;61.79;99300.56;4770320;30;20086;-79
2021/06/27 03:34:39;;;;;;;0.55;0.50;;;;;;;27.44;60.67;99301.22;4761568;30;20059;-80
2021/06/27 03:37:05;;;;;;;0.35;0.35;;;;;;;27.67;59.40;99290.75;4761311;30;20064;-82
2021/06/27 03:39:31;;;;;;;0.40;0.40;;;;;;;27.97;56.21;99293.66;4748528;30;20047;-80
2021/06/27 03:41:58;;;;;;;0.52;0.50;;;;;;;28.12;56.30;99295.66;4762599;30;20314;-80
2021/06/27 03:44:25;;;;;;;0.70;0.40;;;;;;;28.27;57.44;99303.19;4765615;30;20112;-80
2021/06/27 03:46:51;;;;;;;0.43;0.40;;;;;;;28.35;57.07;99305.41;4765150;30;20134;-80
2021/06/27 03:49:18;;;;;;;1.10;0.50;;;;;;;28.46;57.17;99307.13;4750059;30;20571;-80
2021/06/27 03:51:44;;;;;;;0.40;0.40;;;;;;;28.58;56.47;99310.44;4751093;30;20125;-82
2021/06/27 03:54:10;;;;;;;0.45;0.45;;;;;;;28.75;56.31;99304.63;4778512;30;20062;-80
2021/06/27 03:56:36;;;;;;;0.75;0.50;;;;;;;28.86;55.65;99315.75;4761208;30;20507;-81
2021/06/27 03:59:03;;;;;;;0.50;0.40;;;;;;;28.96;54.97;99311.00;4764891;30;20051;-82
2021/06/27 04:01:29;;;;;;;0.65;0.40;;;;;;;29.20;54.15;99316.00;4765594;30;20584;-80
2021/06/27 04:03:55;;;;;;;0.40;0.40;;;;;;;29.39;53.16;99314.25;4766729;30;20533;-82
2021/06/27 04:06:21;;;;;;;0.50;0.50;;;;;;;29.63;52.09;99313.66;4751543;30;20127;-80
2021/06/27 04:08:47;;;;;;;0.70;0.60;;;;;;;29.83;51.64;99307.97;4763864;30;20055;-80
2021/06/27 04:11:13;;;;;;;0.43;0.40;;;;;;;29.94;50.55;99315.16;4767994;30;20048;-81
2021/06/27 04:13:39;;;;;;;0.68;0.40;;;;;;;30.16;50.92;99308.34;4771354;30;20073;-82
2021/06/27 04:16:06;;;;;;;1.55;0.60;;;;;;;30.34;50.07;99302.13;4769173;30;20063;-81
2021/06/27 04:18:34;;;;;;;0.52;0.40;;;;;;;30.65;48.68;99301.88;4767935;30;20092;-81
2021/06/27 04:21:01;;;;;;;0.80;0.50;;;;;;;30.91;48.06;99303.34;4770787;30;20086;-82
2021/06/27 04:23:28;;;;;;;0.70;0.40;;;;;;;30.99;47.96;99302.69;4757112;30;20047;-83
2021/06/27 04:25:55;;;;;;;0.65;0.60;;;;;;;31.15;47.21;99306.16;4772218;30;20057;-81
2021/06/27 04:28:21;;;;;;;1.08;0.50;;;;;;;31.45;46.92;99310.63;4764832;30;20527;-81
2021/06/27 04:30:47;;;;;;;0.70;0.50;;;;;;;31.60;47.08;99300.41;4769359;30;20134;-82
2021/06/27 04:33:14;;;;;;;0.55;0.50;;;;;;;31.81;46.68;99312.13;4768248;30;20091;-81
2021/06/27 04:35:40;;;;;;;0.77;0.50;;;;;;;31.79;46.56;99309.63;4767989;30;20499;-84
2021/06/27 04:38:08;;;;;;;1.20;0.50;;;;;;;31.94;46.59;99306.66;4747790;30;20043;-83
2021/06/27 04:40:35;;;;;;;0.60;0.60;;;;;;;32.15;46.81;99318.41;4783482;30;20046;-80
2021/06/27 04:43:02;;;;;;;0.75;0.50;;;;;;;32.35;45.98;99306.06;4773256;30;20058;-81
2021/06/27 04:45:28;;;;;;;0.60;0.57;;;;;;;32.44;45.70;99308.22;4744213;30;20047;-80
2021/06/27 04:47:54;;;;;;;2.05;0.63;;;;;;;32.64;44.11;99319.88;4771299;30;20111;-82
2021/06/27 04:50:21;;;;;;;1.40;0.70;;;;;;;32.51;43.63;99303.06;4781205;29;20048;-80
2021/06/27 04:52:51;;;;;;;0.85;0.80;;;;;;;32.13;44.75;99303.88;4765233;30;20142;-82
2021/06/27 04:55:20;;;;;;;1.02;0.60;;;;;;;32.24;44.75;99298.94;4772177;30;20339;-83
2021/06/27 04:57:46;;;;;;;0.68;0.65;;;;;;;32.61;43.02;99283.28;4769784;30;20112;-82
2021/06/27 05:00:14;;;;;;;0.55;0.55;;;;;;;33.00;43.10;99293.28;4752819;30;20148;-82
2021/06/27 05:02:40;;;;;;;0.82;0.70;;;;;;;31.86;45.11;99293.34;4757253;30;20056;-82
2021/06/27 05:05:08;;;;;;;1.02;0.60;;;;;;;32.24;45.51;99293.34;4775249;30;20109;-82
2021/06/27 05:07:36;;;;;;;1.00;0.70;;;;;;;32.57;45.49;99294.25;4759790;30;20047;-80
2021/06/27 05:10:04;;;;;;;0.60;0.60;;;;;;;32.58;44.92;99295.09;4773200;30;20056;-81
2021/06/27 05:12:30;;;;;;;0.88;0.60;;;;;;;33.07;42.46;99296.50;4762173;30;20111;-82
2021/06/27 05:14:56;;;;;;;0.50;0.50;;;;;;;32.58;42.90;99292.28;4752605;30;20036;-83
2021/06/27 05:17:23;;;;;;;0.60;0.60;;;;;;;32.78;41.48;99291.94;4775017;30;20522;-83
2021/06/27 05:19:50;;;;;;;0.57;0.57;;;;;;;32.35;41.38;99280.88;4788871;30;20051;-80
2021/06/27 05:22:17;;;;;;;0.60;0.60;;;;;;;32.72;41.38;99298.75;4777275;30;20118;-82
2021/06/27 05:24:43;;;;;;;0.50;0.50;;;;;;;33.24;41.27;99288.34;4776218;30;20064;-82
2021/06/27 05:27:10;;;;;;;0.40;0.40;;;;;;;32.75;41.40;99286.94;4778427;30;20044;-82
2021/06/27 05:29:37;;;;;;;0.75;0.50;;;;;;;33.40;40.02;99291.66;4782168;30;20078;-82
2021/06/27 05:32:07;;;;;;;0.50;0.50;;;;;;;33.61;38.56;99297.69;4765057;30;20058;-80
2021/06/27 05:34:33;;;;;;;0.50;0.50;;;;;;;33.54;39.16;99300.09;4742228;30;20320;-83
2021/06/27 05:36:59;;;;;;;0.50;0.50;;;;;;;33.79;38.82;99299.56;4774027;30;20046;-79
2021/06/27 05:39:25;;;;;;;0.85;0.60;;;;;;;33.42;39.50;99299.72;4771768;30;20048;-83
2021/06/27 05:41:52;;;;;;;0.52;0.52;;;;;;;33.84;39.63;99285.41;4773621;30;20127;-84
2021/06/27 05:44:19;;;;;;;0.50;0.50;;;;;;;34.13;39.21;99292.66;4780080;30;20547;-83
2021/06/27 05:46:47;;;;;;;0.60;0.60;;;;;;;34.47;38.37;99296.88;4774764;30;20082;-82
2021/06/27 05:49:15;;;;;;;0.60;0.60;;;;;;;34.23;39.30;99285.97;4766728;30;20048;-82
2021/06/27 05:51:41;;;;;;;0.50;0.50;;;;;;;34.57;38.63;99291.06;4766278;30;20044;-81
2021/06/27 05:54:09;;;;;;;0.50;0.50;;;;;;;34.58;39.29;99280.66;4773526;30;20124;-83
2021/06/27 05:56:36;;;;;;;1.15;0.60;;;;;;;35.16;37.28;99288.97;4761327;30;20047;-82
2021/06/27 05:59:03;;;;;;;0.50;0.50;;;;;;;35.34;37.56;99280.59;4770603;30;20105;-83
2021/06/27 06:01:31;;;;;;;0.52;0.52;;;;;;;35.20;37.20;99270.28;4774776;30;20049;-85
2021/06/27 06:03:59;;;;;;;0.60;0.60;;;;;;;34.89;38.02;99270.28;4776485;30;20036;-83
2021/06/27 06:06:26;;;;;;;0.52;0.52;;;;;;;35.08;37.73;99272.88;4794153;30;20040;-85
2021/06/27 06:08:54;;;;;;;0.70;0.70;;;;;;;35.42;37.26;99280.63;4744839;30;20040;-81
2021/06/27 06:11:25;;;;;;;0.63;0.63;;;;;;;36.05;36.23;99269.25;4771763;30;20151;-84
2021/06/27 06:13:53;;;;;;;0.60;0.60;;;;;;;35.61;36.86;99271.94;4759315;30;20044;-83
2021/06/27 06:16:20;;;;;;;0.60;0.60;;;;;;;35.33;38.04;99268.53;4762721;30;20372;-84
2021/06/27 06:18:48;;;;;;;0.60;0.60;;;;;;;35.30;37.65;99268.34;4775179;30;20064;-83
2021/06/27 06:21:16;;;;;;;0.63;0.63;;;;;;;34.84;38.35;99266.78;4766064;30;20115;-84
2021/06/27 06:23:45;;;;;;;0.60;0.60;;;;;;;34.68;38.76;99253.13;4780398;30;20048;-86
2021/06/27 06:26:12;;;;;;;1.45;0.80;;;;;;;35.03;38.73;99267.38;4757348;30;20106;-84
2021/06/27 06:28:40;;;;;;;0.65;0.65;;;;;;;35.45;37.88;99265.09;4780049;29;20127;-84
2021/06/27 06:31:09;;;;;;;0.80;0.68;;;;;;;36.61;35.71;99268.25;4783016;30;20075;-86
2021/06/27 06:33:37;;;;;;;0.60;0.60;;;;;;;37.05;35.45;99271.84;4766736;30;20043;-86
2021/06/27 06:36:04;;;;;;;0.70;0.70;;;;;;;36.79;35.06;99262.59;4778787;30;20150;-82
2021/06/27 06:38:31;;;;;;;0.60;0.60;;;;;;;37.11;35.26;99269.63;4774960;30;20052;-85
2021/06/27 06:40:58;;;;;;;0.60;0.60;;;;;;;36.29;36.77;99265.94;4762370;30;20079;-81
2021/06/27 06:43:24;;;;;;;0.70;0.70;;;;;;;36.18;37.53;99257.81;4773881;30;20044;-82
2021/06/27 06:45:51;;;;;;;0.60;0.60;;;;;;;35.88;37.35;99267.22;4769447;29;20086;-83
2021/06/27 06:48:19;;;;;;;0.70;0.70;;;;;;;35.38;38.29;99253.50;4760127;30;20120;-84
2021/06/27 06:50:46;;;;;;;0.70;0.70;;;;;;;35.54;37.95;99257.53;4751527;30;20155;-83
2021/06/27 06:53:14;;;;;;;0.70;0.70;;;;;;;35.62;37.40;99265.19;4779331;30;20080;-84
2021/06/27 06:55:43;;;;;;;0.70;0.70;;;;;;;36.59;35.98;99259.31;4775391;30;20075;-83
2021/06/27 06:58:11;;;;;;;0.65;0.65;;;;;;;35.79;36.93;99257.91;4761228;30;20040;-84
2021/06/27 07:00:39;;;;;;;0.70;0.70;;;;;;;35.66;36.69;99260.56;4760177;30;20054;-83
2021/06/27 07:03:08;;;;;;;0.80;0.80;;;;;;;35.88;36.40;99250.34;4768919;30;20063;-83
2021/06/27 07:05:37;;;;;;;0.80;0.80;;;;;;;35.69;36.60;99254.28;4783040;30;20052;-84
2021/06/27 07:08:06;;;;;;;0.73;0.73;;;;;;;36.84;35.36;99259.59;4763773;30;20135;-85
2021/06/27 07:10:33;;;;;;;0.75;0.75;;;;;;;36.65;35.04;99257.16;4757109;30;20040;-85
2021/06/27 07:13:02;;;;;;;0.80;0.80;;;;;;;37.04;34.29;99258.06;4988530;24;20259;-86
2021/06/27 07:15:30;;;;;;;0.70;0.70;;;;;;;36.93;34.07;99268.84;5023952;24;20047;-84
2021/06/27 07:17:59;;;;;;;0.85;0.85;;;;;;;37.16;33.73;99267.47;4779283;29;20032;-85
2021/06/27 07:20:26;;;;;;;0.70;0.70;;;;;;;36.46;34.76;99271.56;4737852;30;20036;-85
2021/06/27 07:22:55;;;;;;;0.80;0.80;;;;;;;37.44;33.65;99272.66;4736067;30;20104;-84
2021/06/27 07:25:24;;;;;;;0.93;0.93;;;;;;;38.39;31.81;99262.75;4739620;30;20050;-84
2021/06/27 07:27:52;;;;;;;0.80;0.80;;;;;;;37.72;33.00;99260.91;4736106;30;20096;-84
2021/06/27 07:30:21;;;;;;;0.95;0.95;;;;;;;38.74;31.54;99256.78;4731047;30;20059;-83
2021/06/27 07:32:48;;;;;;;0.85;0.85;;;;;;;39.25;31.21;99260.25;4748047;29;20048;-82
2021/06/27 07:35:16;;;;;;;1.00;0.90;;;;;;;38.03;31.84;99266.19;4768294;29;20048;-83
2021/06/27 07:37:44;;;;;;;0.80;0.80;;;;;;;37.23;33.72;99263.31;4768094;30;20143;-84
2021/06/27 07:40:12;;;;;;;0.70;0.70;;;;;;;38.91;31.29;99259.47;4749271;30;20052;-82
2021/06/27 07:42:40;;;;;;;0.80;0.80;;;;;;;40.29;29.22;99266.41;4764165;30;20070;-82
2021/06/27 07:45:09;;;;;;;0.80;0.80;;;;;;;38.82;31.01;99265.19;4762712;30;20041;-84
2021/06/27 07:47:37;;;;;;;0.80;0.80;;;;;;;38.65;31.33;99270.16;4750706;30;20055;-84
2021/06/27 07:50:05;;;;;;;0.90;0.90;;;;;;;40.32;29.43;99272.16;4769739;30;20059;-85
2021/06/27 07:52:37;;;;;;;0.90;0.90;;;;;;;40.80;28.50;99264.66;4742253;30;20104;-85
2021/06/27 07:55:06;;;;;;;2.17;0.90;;;;;;;41.05;27.82;99273.06;4774245;29;20040;-85
2021/06/27 07:57:38;;;;;;;0.90;0.90;;;;;;;40.78;27.73;99269.88;4739467;30;20047;-86
2021/06/27 08:00:08;;;;;;;0.88;0.88;;;;;;;40.69;27.07;99266.38;4767206;30;20048;-84
2021/06/27 08:02:42;;;;;;;0.98;0.98;;;;;;;38.93;29.72;99271.22;4730159;30;20048;-86
2021/06/27 08:05:09;;;;;;;0.90;0.90;;;;;;;40.42;28.42;99268.00;4762952;30;20096;-83
2021/06/27 08:07:40;;;;;;;0.80;0.80;;;;;;;41.89;26.59;99267.91;4769796;29;20069;-85
2021/06/27 08:10:10;;;;;;;0.90;0.90;;;;;;;40.74;27.25;99257.63;4769893;30;20055;-85
2021/06/27 08:12:38;;;;;;;0.90;0.90;;;;;;;40.71;27.62;99264.00;4751830;30;20055;-83
2021/06/27 08:15:07;;;;;;;1.00;1.00;;;;;;;40.23;27.62;99254.50;4738948;30;20040;-84
2021/06/27 08:17:37;;;;;;;0.90;0.90;;;;;;;39.02;28.45;99269.13;4764449;30;20107;-85
2021/06/27 08:20:07;;;;;;;0.93;0.93;;;;;;;39.73;27.48;99258.59;4774648;24;20051;-86
2021/06/27 08:22:36;;;;;;;1.00;1.00;;;;;;;39.89;27.27;99259.50;4774305;30;20137;-86
2021/06/27 08:25:05;;;;;;;1.00;1.00;;;;;;;40.21;26.75;99256.88;4807353;29;20318;-86
2021/06/27 08:31:03;;;;;;;1.05;1.05;;;;;;;40.78;27.14;99257.72;4948005;24;20056;-85
2021/06/27 08:36:34;;;;;;;1.00;1.00;;;;;;;40.47;27.01;99259.25;5498065;24;20135;-87
2021/06/27 08:42:10;;;;;;;0.90;0.90;;;;;;;40.96;26.52;99254.16;4772218;30;20290;-87
2021/06/27 08:44:44;;;;;;;1.00;1.00;;;;;;;41.99;25.42;99260.00;4934653;24;20059;-86
2021/06/27 08:47:16;;;;;;;0.88;0.88;;;;;;;41.54;25.48;99255.66;4759292;30;20074;-86
2021/06/27 08:59:01;;;;;;;1.00;1.00;;;;;;;42.73;24.04;99255.09;4911599;24;20067;-86
2021/06/27 09:07:49;;;;;;;0.90;0.90;;;;;;;39.73;27.09;99247.28;4777231;29;20036;-86
2021/06/27 09:13:03;;;;;;;0.90;0.90;;;;;;;40.90;26.19;99232.13;5179496;24;19960;-85
2021/06/27 09:15:36;;;;;;;0.98;0.98;;;;;;;40.50;25.97;99235.84;5017495;24;20135;-84
2021/06/27 09:18:22;;;;;;;1.00;1.00;;;;;;;39.29;28.30;99230.88;4958367;24;20112;-86
2021/06/27 09:20:57;;;;;;;0.88;0.88;;;;;;;39.82;27.64;99233.81;4770319;30;20048;-86
2021/06/27 09:23:45;;;;;;;0.90;0.90;;;;;;;38.88;28.32;99231.88;4793989;29;20052;-85
2021/06/27 09:26:25;;;;;;;0.90;0.90;;;;;;;39.98;27.00;99231.88;5140128;24;20075;-85
2021/06/27 09:28:53;;;;;;;0.90;0.90;;;;;;;40.09;27.38;99231.41;4793743;29;20104;-88
2021/06/27 09:31:42;;;;;;;0.88;0.88;;;;;;;40.70;26.40;99216.97;4770875;30;20108;-85
2021/06/27 09:34:13;;;;;;;0.80;0.80;;;;;;;40.83;25.99;99221.41;4983493;24;20105;-81
2021/06/27 09:36:51;;;;;;;0.80;0.80;;;;;;;41.63;25.33;99227.91;4770892;30;20593;-82
2021/06/27 09:39:18;;;;;;;0.90;0.90;;;;;;;41.59;25.01;99225.00;4759837;30;20067;-81
2021/06/27 09:41:49;;;;;;;1.05;0.90;;;;;;;41.20;25.86;99221.97;4759112;30;20051;-81
2021/06/27 09:44:17;;;;;;;0.80;0.80;;;;;;;42.89;24.30;99217.19;4771593;30;20148;-83
2021/06/27 09:46:50;;;;;;;0.75;0.75;;;;;;;41.36;25.58;99207.81;4778945;30;20039;-82
2021/06/27 09:49:31;;;;;;;0.90;0.90;;;;;;;40.83;26.93;99204.38;4775239;30;20051;-82
2021/06/27 09:52:05;;;;;;;0.20;0.10;;;;;;;41.05;26.10;99202.16;4777758;30;20063;-84
2021/06/27 09:54:32;;;;;;;0.80;0.80;;;;;;;41.39;25.86;99209.06;4776170;30;20035;-83
2021/06/27 09:57:00;;;;;;;0.80;0.80;;;;;;;40.88;26.29;99198.47;4772447;30;20139;-83
2021/06/27 09:59:40;;;;;;;0.80;0.80;;;;;;;40.21;26.96;99201.03;4758511;30;20044;-80
2021/06/27 10:02:07;;;;;;;0.80;0.80;;;;;;;41.34;26.40;99207.34;4770266;30;20062;-83
2021/06/27 10:04:36;;;;;;;0.90;0.90;;;;;;;42.64;24.51;99200.47;4756675;30;20055;-82
2021/06/27 10:07:06;;;;;;;0.63;0.63;;;;;;;43.16;23.94;99199.00;4757322;30;20056;-83
2021/06/27 10:09:39;;;;;;;0.80;0.80;;;;;;;43.02;24.07;99182.50;4770049;30;20043;-82
2021/06/27 10:12:10;;;;;;;0.70;0.70;;;;;;;43.02;24.22;99193.06;4714668;30;20056;-82
2021/06/27 10:14:39;;;;;;;0.80;0.80;;;;;;;42.81;23.85;99190.66;4742252;30;20043;-83
2021/06/27 10:17:07;;;;;;;0.73;0.73;;;;;;;42.72;24.40;99201.47;4756740;30;21905;-83
2021/06/27 10:19:34;;;;;;;0.70;0.70;;;;;;;41.82;25.07;99212.94;4737918;30;20101;-80
2021/06/27 10:22:02;;;;;;;0.65;0.65;;;;;;;42.74;24.29;99199.88;4754095;30;20048;-78
2021/06/27 10:24:29;;;;;;;0.22;0.10;;;;;;;39.73;28.01;99196.34;4769415;30;20067;-82
2021/06/27 10:26:56;;;;;;;0.10;0.10;;;;;;;39.08;28.35;99190.53;4775491;30;20331;-82
2021/06/27 10:29:23;;;;;;;0.50;0.50;;;;;;;38.09;29.92;99186.59;4778200;30;20491;-83
2021/06/27 10:31:52;;;;;;;0.90;0.90;;;;;;;39.25;28.31;99181.03;4776110;30;20505;-81
2021/06/27 10:34:20;;;;;;;0.85;0.85;;;;;;;40.55;27.21;99186.56;4762278;30;20124;-81
2021/06/27 10:36:51;;;;;;;0.10;0.10;;;;;;;38.34;30.21;99186.69;4741073;30;20036;-83
2021/06/27 10:39:18;;;;;;;0.32;0.20;;;;;;;36.66;32.84;99186.38;4756117;30;20082;-79
2021/06/27 10:41:55;;;;;;;0.10;0.10;;;;;;;35.55;34.56;99180.47;4750765;30;20067;-80
2021/06/27 10:44:24;;;;;;;0.40;0.40;;;;;;;36.20;33.21;99179.50;4769016;30;20083;-80
2021/06/27 10:46:52;;;;;;;1.00;1.00;;;;;;;37.50;31.63;99181.06;4768382;30;20079;-82
2021/06/27 10:49:31;;;;;;;0.80;0.80;;;;;;;37.54;31.76;99167.91;4766039;30;20052;-82
2021/06/27 10:52:11;;;;;;;0.80;0.80;;;;;;;37.36;31.51;99181.28;4768798;30;20048;-82
2021/06/27 10:54:42;;;;;;;0.70;0.70;;;;;;;38.99;29.25;99168.06;4753387;30;20081;-83
2021/06/27 10:57:10;;;;;;;0.80;0.80;;;;;;;39.53;29.00;99162.16;4769073;30;20097;-82
2021/06/27 10:59:45;;;;;;;0.40;0.40;;;;;;;40.09;27.72;99158.56;4723758;30;20135;-82
2021/06/27 11:02:25;;;;;;;1.00;1.00;;;;;;;38.52;29.57;99156.31;4770632;30;20122;-82
2021/06/27 11:04:54;;;;;;;0.60;0.60;;;;;;;39.30;29.11;99161.00;4763510;30;20056;-83
2021/06/27 11:07:33;;;;;;;1.00;1.00;;;;;;;39.06;29.23;99164.66;4754215;30;20048;-83
2021/06/27 11:10:19;;;;;;;0.80;0.80;;;;;;;40.82;26.94;99157.38;4768569;30;20129;-82
2021/06/27 11:13:01;;;;;;;0.20;0.10;;;;;;;40.04;28.00;99161.66;4775943;30;20097;-82
2021/06/27 11:15:35;;;;;;;0.90;0.90;;;;;;;39.21;29.24;99146.13;4761475;30;20115;-81
2021/06/27 11:18:07;;;;;;;0.70;0.70;;;;;;;39.79;28.32;99149.63;4784780;30;20052;-82
2021/06/27 11:20:49;;;;;;;0.70;0.70;;;;;;;39.91;27.83;99146.72;4774728;30;20134;-83
2021/06/27 11:23:15;;;;;;;0.70;0.70;;;;;;;40.10;27.29;99148.06;4780234;30;20090;-81
2021/06/27 11:25:48;;;;;;;0.75;0.75;;;;;;;40.53;26.83;99140.78;4754853;30;20048;-83
2021/06/27 11:28:17;;;;;;;0.82;0.82;;;;;;;41.07;26.38;99141.03;4769664;30;20052;-82
2021/06/27 11:31:06;;;;;;;0.80;0.80;;;;;;;40.54;26.31;99126.25;4787439;30;20063;-82
2021/06/27 11:33:36;;;;;;;0.80;0.80;;;;;;;41.20;25.56;99127.53;4747413;30;20055;-83
2021/06/27 11:36:04;;;;;;;0.30;0.30;;;;;;;39.67;26.91;99112.81;4779323;30;20068;-81
2021/06/27 11:38:46;;;;;;;0.60;0.60;;;;;;;38.62;29.14;99119.13;4762321;30;20062;-82
2021/06/27 11:41:26;;;;;;;0.70;0.70;;;;;;;38.57;28.60;99111.69;4793646;30;20068;-83
2021/06/27 11:44:08;;;;;;;0.50;0.50;;;;;;;39.76;27.44;99116.38;4792601;30;20102;-84
2021/06/27 11:46:47;;;;;;;0.50;0.50;;;;;;;40.18;27.22;99127.28;4773417;30;20087;-84
2021/06/27 11:49:34;;;;;;;0.13;0.10;;;;;;;38.95;27.87;99126.72;4773749;30;20108;-83
2021/06/27 11:52:01;;;;;;;0.32;0.30;;;;;;;37.74;29.39;99117.50;4755614;30;20248;-82
2021/06/27 11:54:32;;;;;;;0.15;0.10;;;;;;;37.30;30.21;99108.50;4753150;30;20056;-80
2021/06/27 11:57:06;;;;;;;0.60;0.60;;;;;;;38.20;29.12;99112.75;4790868;29;20052;-81
2021/06/27 11:59:37;;;;;;;0.20;0.20;;;;;;;38.21;29.64;99098.28;4756580;30;20364;-82
2021/06/27 12:02:17;;;;;;;0.40;0.40;;;;;;;38.19;28.87;99128.06;4788478;29;20079;-80
2021/06/27 12:04:49;;;;;;;0.30;0.30;;;;;;;38.45;29.29;99097.53;4761263;30;20052;-83
2021/06/27 12:07:35;;;;;;;0.30;0.30;;;;;;;37.83;29.39;99101.31;4767175;30;20040;-81
2021/06/27 12:10:11;;;;;;;0.30;0.30;;;;;;;37.54;30.14;99097.41;4769831;30;20040;-83